sensor_id;sensor_type;location;lat;lon;timestamp;P1;durP1;ratioP1;P2;durP2;ratioP2
57551;SDS011;43379;48.160;14.036;2023-04-08T00:01:48;19.10;;;17.20;;
57551;SDS011;43379;48.160;14.036;2023-04-08T00:04:14;19.17;;;17.20;;
57551;SDS011;43379;48.160;14.036;2023-04-08T00:06:39;18.00;;;16.30;;
57551;SDS011;43379;48.160;14.036;2023-04-08T00:09:05;19.03;;;17.23;;
57551;SDS011;43379;48.160;14.036;2023-04-08T00:11:31;18.80;;;17.10;;
57551;SDS011;43379;48.160;14.036;2023-04-08T00:13:56;18.77;;;16.70;;
57551;SDS011;43379;48.160;14.036;2023-04-08T00:16:22;20.73;;;18.73;;
57551;SDS011;43379;48.160;14.036;2023-04-08T00:18:48;18.47;;;16.67;;
57551;SDS011;43379;48.160;14.036;2023-04-08T00:21:13;18.03;;;16.40;;
57551;SDS011;43379;48.160;14.036;2023-04-08T00:23:42;17.70;;;16.00;;
57551;SDS011;43379;48.160;14.036;2023-04-08T00:26:07;19.93;;;17.93;;
57551;SDS011;43379;48.160;14.036;2023-04-08T00:28:33;18.63;;;16.90;;
57551;SDS011;43379;48.160;14.036;2023-04-08T00:30:59;17.67;;;16.07;;
57551;SDS011;43379;48.160;14.036;2023-04-08T00:33:25;17.97;;;16.33;;
57551;SDS011;43379;48.160;14.036;2023-04-08T00:35:50;18.20;;;16.40;;
57551;SDS011;43379;48.160;14.036;2023-04-08T00:38:16;19.10;;;17.30;;
57551;SDS011;43379;48.160;14.036;2023-04-08T00:40:42;18.03;;;16.23;;
57551;SDS011;43379;48.160;14.036;2023-04-08T00:43:08;17.73;;;16.13;;
57551;SDS011;43379;48.160;14.036;2023-04-08T00:45:34;18.90;;;17.07;;
57551;SDS011;43379;48.160;14.036;2023-04-08T00:48:00;17.23;;;15.67;;
57551;SDS011;43379;48.160;14.036;2023-04-08T00:50:27;19.50;;;17.70;;
57551;SDS011;43379;48.160;14.036;2023-04-08T00:52:53;17.20;;;15.70;;
57551;SDS011;43379;48.160;14.036;2023-04-08T00:55:18;17.33;;;15.83;;
57551;SDS011;43379;48.160;14.036;2023-04-08T00:57:44;19.07;;;17.27;;
57551;SDS011;43379;48.160;14.036;2023-04-08T01:00:11;19.03;;;17.23;;
57551;SDS011;43379;48.160;14.036;2023-04-08T01:05:20;18.20;;;16.40;;
57551;SDS011;43379;48.160;14.036;2023-04-08T01:07:54;18.00;;;16.40;;
57551;SDS011;43379;48.160;14.036;2023-04-08T01:10:22;17.17;;;15.57;;
57551;SDS011;43379;48.160;14.036;2023-04-08T01:12:54;19.83;;;17.93;;
57551;SDS011;43379;48.160;14.036;2023-04-08T01:15:22;16.87;;;15.13;;
57551;SDS011;43379;48.160;14.036;2023-04-08T01:17:52;17.83;;;16.23;;
57551;SDS011;43379;48.160;14.036;2023-04-08T01:20:20;18.70;;;16.33;;
57551;SDS011;43379;48.160;14.036;2023-04-08T01:22:59;18.50;;;16.80;;
57551;SDS011;43379;48.160;14.036;2023-04-08T01:25:50;18.03;;;16.23;;
57551;SDS011;43379;48.160;14.036;2023-04-08T01:28:20;18.57;;;16.77;;
57551;SDS011;43379;48.160;14.036;2023-04-08T01:30:48;18.87;;;16.73;;
57551;SDS011;43379;48.160;14.036;2023-04-08T01:33:16;17.10;;;15.50;;
57551;SDS011;43379;48.160;14.036;2023-04-08T01:35:43;18.00;;;16.40;;
57551;SDS011;43379;48.160;14.036;2023-04-08T01:38:13;17.97;;;16.13;;
57551;SDS011;43379;48.160;14.036;2023-04-08T01:40:40;17.87;;;16.20;;
57551;SDS011;43379;48.160;14.036;2023-04-08T01:43:07;18.80;;;17.10;;
57551;SDS011;43379;48.160;14.036;2023-04-08T01:45:34;18.60;;;16.70;;
57551;SDS011;43379;48.160;14.036;2023-04-08T01:48:00;18.37;;;16.57;;
57551;SDS011;43379;48.160;14.036;2023-04-08T01:50:27;16.30;;;14.80;;
57551;SDS011;43379;48.160;14.036;2023-04-08T01:52:54;18.00;;;16.40;;
57551;SDS011;43379;48.160;14.036;2023-04-08T01:55:23;15.73;;;14.30;;
57551;SDS011;43379;48.160;14.036;2023-04-08T01:57:51;16.50;;;14.70;;
57551;SDS011;43379;48.160;14.036;2023-04-08T02:00:21;15.60;;;14.23;;
57551;SDS011;43379;48.160;14.036;2023-04-08T02:02:49;18.30;;;14.37;;
57551;SDS011;43379;48.160;14.036;2023-04-08T02:05:16;16.70;;;15.20;;
57551;SDS011;43379;48.160;14.036;2023-04-08T02:07:42;15.10;;;13.70;;
57551;SDS011;43379;48.160;14.036;2023-04-08T02:10:10;14.73;;;13.43;;
57551;SDS011;43379;48.160;14.036;2023-04-08T02:12:36;14.93;;;13.67;;
57551;SDS011;43379;48.160;14.036;2023-04-08T02:15:02;13.83;;;12.43;;
57551;SDS011;43379;48.160;14.036;2023-04-08T02:25:12;14.53;;;13.20;;
57551;SDS011;43379;48.160;14.036;2023-04-08T02:27:40;14.00;;;12.80;;
57551;SDS011;43379;48.160;14.036;2023-04-08T02:30:07;15.03;;;13.73;;
57551;SDS011;43379;48.160;14.036;2023-04-08T02:32:35;15.00;;;12.97;;
57551;SDS011;43379;48.160;14.036;2023-04-08T02:35:02;13.47;;;12.30;;
57551;SDS011;43379;48.160;14.036;2023-04-08T02:37:32;14.93;;;13.47;;
57551;SDS011;43379;48.160;14.036;2023-04-08T02:39:58;14.83;;;13.57;;
57551;SDS011;43379;48.160;14.036;2023-04-08T02:42:24;13.43;;;12.10;;
57551;SDS011;43379;48.160;14.036;2023-04-08T02:44:50;14.47;;;13.20;;
57551;SDS011;43379;48.160;14.036;2023-04-08T02:47:16;16.03;;;14.53;;
57551;SDS011;43379;48.160;14.036;2023-04-08T02:49:41;15.93;;;14.53;;
57551;SDS011;43379;48.160;14.036;2023-04-08T02:52:07;15.00;;;13.57;;
57551;SDS011;43379;48.160;14.036;2023-04-08T02:54:33;15.17;;;13.90;;
57551;SDS011;43379;48.160;14.036;2023-04-08T02:56:58;15.63;;;14.10;;
57551;SDS011;43379;48.160;14.036;2023-04-08T02:59:24;15.67;;;14.20;;
57551;SDS011;43379;48.160;14.036;2023-04-08T03:01:50;15.03;;;13.73;;
57551;SDS011;43379;48.160;14.036;2023-04-08T03:04:15;14.93;;;13.63;;
57551;SDS011;43379;48.160;14.036;2023-04-08T03:06:41;15.20;;;13.80;;
57551;SDS011;43379;48.160;14.036;2023-04-08T03:09:07;15.87;;;14.50;;
57551;SDS011;43379;48.160;14.036;2023-04-08T03:11:32;15.00;;;13.73;;
57551;SDS011;43379;48.160;14.036;2023-04-08T03:13:58;15.90;;;14.40;;
57551;SDS011;43379;48.160;14.036;2023-04-08T03:16:24;15.10;;;13.90;;
57551;SDS011;43379;48.160;14.036;2023-04-08T03:18:50;16.10;;;14.70;;
57551;SDS011;43379;48.160;14.036;2023-04-08T03:21:16;15.00;;;13.77;;
57551;SDS011;43379;48.160;14.036;2023-04-08T03:23:41;14.83;;;13.63;;
57551;SDS011;43379;48.160;14.036;2023-04-08T03:26:07;16.27;;;14.87;;
57551;SDS011;43379;48.160;14.036;2023-04-08T03:28:33;14.90;;;13.67;;
57551;SDS011;43379;48.160;14.036;2023-04-08T03:30:58;15.60;;;14.10;;
57551;SDS011;43379;48.160;14.036;2023-04-08T03:33:27;15.10;;;13.70;;
57551;SDS011;43379;48.160;14.036;2023-04-08T03:35:53;14.90;;;13.70;;
57551;SDS011;43379;48.160;14.036;2023-04-08T03:38:18;15.47;;;14.07;;
57551;SDS011;43379;48.160;14.036;2023-04-08T03:40:44;16.30;;;14.70;;
57551;SDS011;43379;48.160;14.036;2023-04-08T03:43:10;15.30;;;13.90;;
57551;SDS011;43379;48.160;14.036;2023-04-08T03:45:36;13.33;;;12.13;;
57551;SDS011;43379;48.160;14.036;2023-04-08T03:48:02;13.80;;;12.60;;
57551;SDS011;43379;48.160;14.036;2023-04-08T03:50:28;13.87;;;12.73;;
57551;SDS011;43379;48.160;14.036;2023-04-08T03:52:54;15.20;;;13.90;;
57551;SDS011;43379;48.160;14.036;2023-04-08T03:55:20;14.87;;;13.57;;
57551;SDS011;43379;48.160;14.036;2023-04-08T03:57:45;14.43;;;13.20;;
57551;SDS011;43379;48.160;14.036;2023-04-08T04:00:11;15.37;;;13.97;;
57551;SDS011;43379;48.160;14.036;2023-04-08T04:02:38;14.93;;;13.63;;
57551;SDS011;43379;48.160;14.036;2023-04-08T04:05:04;15.60;;;14.17;;
57551;SDS011;43379;48.160;14.036;2023-04-08T04:07:30;15.40;;;13.90;;
57551;SDS011;43379;48.160;14.036;2023-04-08T04:09:55;15.27;;;13.97;;
57551;SDS011;43379;48.160;14.036;2023-04-08T04:12:21;15.40;;;13.90;;
57551;SDS011;43379;48.160;14.036;2023-04-08T04:14:47;14.83;;;13.50;;
57551;SDS011;43379;48.160;14.036;2023-04-08T04:17:13;15.43;;;14.10;;
57551;SDS011;43379;48.160;14.036;2023-04-08T04:19:39;16.50;;;15.10;;
57551;SDS011;43379;48.160;14.036;2023-04-08T04:22:04;15.70;;;14.30;;
57551;SDS011;43379;48.160;14.036;2023-04-08T04:24:30;14.40;;;13.20;;
57551;SDS011;43379;48.160;14.036;2023-04-08T04:26:56;16.13;;;14.50;;
57551;SDS011;43379;48.160;14.036;2023-04-08T04:29:21;14.70;;;13.40;;
57551;SDS011;43379;48.160;14.036;2023-04-08T04:31:47;15.17;;;13.60;;
57551;SDS011;43379;48.160;14.036;2023-04-08T04:34:12;15.40;;;14.00;;
57551;SDS011;43379;48.160;14.036;2023-04-08T04:36:38;17.00;;;14.33;;
57551;SDS011;43379;48.160;14.036;2023-04-08T04:39:04;15.57;;;14.03;;
57551;SDS011;43379;48.160;14.036;2023-04-08T04:41:30;15.67;;;14.03;;
57551;SDS011;43379;48.160;14.036;2023-04-08T04:43:55;14.43;;;13.13;;
57551;SDS011;43379;48.160;14.036;2023-04-08T04:46:21;15.83;;;14.43;;
57551;SDS011;43379;48.160;14.036;2023-04-08T04:48:46;15.87;;;14.40;;
57551;SDS011;43379;48.160;14.036;2023-04-08T04:51:12;15.40;;;13.97;;
57551;SDS011;43379;48.160;14.036;2023-04-08T04:53:38;16.47;;;15.00;;
57551;SDS011;43379;48.160;14.036;2023-04-08T04:56:03;16.97;;;15.37;;
57551;SDS011;43379;48.160;14.036;2023-04-08T04:58:29;15.40;;;13.97;;
57551;SDS011;43379;48.160;14.036;2023-04-08T05:00:55;17.90;;;14.50;;
57551;SDS011;43379;48.160;14.036;2023-04-08T05:03:21;15.47;;;14.17;;
57551;SDS011;43379;48.160;14.036;2023-04-08T05:05:53;15.57;;;14.17;;
57551;SDS011;43379;48.160;14.036;2023-04-08T05:08:19;16.63;;;14.83;;
57551;SDS011;43379;48.160;14.036;2023-04-08T05:10:45;17.97;;;16.37;;
57551;SDS011;43379;48.160;14.036;2023-04-08T05:13:11;16.53;;;15.03;;
57551;SDS011;43379;48.160;14.036;2023-04-08T05:15:37;19.70;;;17.80;;
57551;SDS011;43379;48.160;14.036;2023-04-08T05:18:02;16.80;;;15.40;;
57551;SDS011;43379;48.160;14.036;2023-04-08T05:20:28;17.03;;;15.53;;
57551;SDS011;43379;48.160;14.036;2023-04-08T05:22:54;16.00;;;14.43;;
57551;SDS011;43379;48.160;14.036;2023-04-08T05:25:19;18.00;;;16.30;;
57551;SDS011;43379;48.160;14.036;2023-04-08T05:27:45;21.00;;;19.20;;
57551;SDS011;43379;48.160;14.036;2023-04-08T05:30:11;21.07;;;19.13;;
57551;SDS011;43379;48.160;14.036;2023-04-08T05:32:37;20.73;;;18.63;;
57551;SDS011;43379;48.160;14.036;2023-04-08T05:35:03;22.43;;;20.23;;
57551;SDS011;43379;48.160;14.036;2023-04-08T05:37:29;20.00;;;18.20;;
57551;SDS011;43379;48.160;14.036;2023-04-08T05:39:54;21.83;;;19.80;;
57551;SDS011;43379;48.160;14.036;2023-04-08T05:42:20;21.33;;;19.33;;
57551;SDS011;43379;48.160;14.036;2023-04-08T05:44:46;21.60;;;19.53;;
57551;SDS011;43379;48.160;14.036;2023-04-08T05:47:11;23.00;;;20.70;;
57551;SDS011;43379;48.160;14.036;2023-04-08T05:49:38;23.47;;;21.30;;
57551;SDS011;43379;48.160;14.036;2023-04-08T05:52:04;22.17;;;19.97;;
57551;SDS011;43379;48.160;14.036;2023-04-08T05:54:30;21.37;;;19.43;;
57551;SDS011;43379;48.160;14.036;2023-04-08T05:56:56;22.00;;;20.00;;
57551;SDS011;43379;48.160;14.036;2023-04-08T05:59:22;23.07;;;20.67;;
57551;SDS011;43379;48.160;14.036;2023-04-08T06:01:47;23.40;;;21.20;;
57551;SDS011;43379;48.160;14.036;2023-04-08T06:04:13;22.77;;;20.50;;
57551;SDS011;43379;48.160;14.036;2023-04-08T06:06:39;22.80;;;20.53;;
57551;SDS011;43379;48.160;14.036;2023-04-08T06:09:05;22.47;;;19.57;;
57551;SDS011;43379;48.160;14.036;2023-04-08T06:11:30;22.40;;;20.20;;
57551;SDS011;43379;48.160;14.036;2023-04-08T06:13:56;22.57;;;20.10;;
57551;SDS011;43379;48.160;14.036;2023-04-08T06:16:22;21.73;;;19.47;;
57551;SDS011;43379;48.160;14.036;2023-04-08T06:18:47;23.93;;;21.60;;
57551;SDS011;43379;48.160;14.036;2023-04-08T06:21:13;23.97;;;21.47;;
57551;SDS011;43379;48.160;14.036;2023-04-08T06:23:39;23.13;;;21.07;;
57551;SDS011;43379;48.160;14.036;2023-04-08T06:26:05;22.97;;;20.57;;
57551;SDS011;43379;48.160;14.036;2023-04-08T06:28:31;23.57;;;21.23;;
57551;SDS011;43379;48.160;14.036;2023-04-08T06:30:57;23.33;;;21.30;;
57551;SDS011;43379;48.160;14.036;2023-04-08T06:33:23;22.57;;;20.37;;
57551;SDS011;43379;48.160;14.036;2023-04-08T06:35:48;23.17;;;20.50;;
57551;SDS011;43379;48.160;14.036;2023-04-08T06:38:14;22.33;;;20.23;;
57551;SDS011;43379;48.160;14.036;2023-04-08T06:40:40;22.37;;;20.23;;
57551;SDS011;43379;48.160;14.036;2023-04-08T06:43:05;23.27;;;21.07;;
57551;SDS011;43379;48.160;14.036;2023-04-08T06:45:32;23.63;;;21.47;;
57551;SDS011;43379;48.160;14.036;2023-04-08T06:47:58;23.20;;;20.97;;
57551;SDS011;43379;48.160;14.036;2023-04-08T06:50:24;23.27;;;21.27;;
57551;SDS011;43379;48.160;14.036;2023-04-08T06:52:50;26.10;;;23.50;;
57551;SDS011;43379;48.160;14.036;2023-04-08T06:55:16;24.57;;;22.17;;
57551;SDS011;43379;48.160;14.036;2023-04-08T06:57:41;22.30;;;20.10;;
57551;SDS011;43379;48.160;14.036;2023-04-08T07:00:07;23.07;;;20.93;;
57551;SDS011;43379;48.160;14.036;2023-04-08T07:02:33;23.00;;;20.80;;
57551;SDS011;43379;48.160;14.036;2023-04-08T07:04:59;21.47;;;19.37;;
57551;SDS011;43379;48.160;14.036;2023-04-08T07:07:25;25.10;;;22.67;;
57551;SDS011;43379;48.160;14.036;2023-04-08T07:09:50;21.87;;;19.67;;
57551;SDS011;43379;48.160;14.036;2023-04-08T07:12:16;21.30;;;19.30;;
57551;SDS011;43379;48.160;14.036;2023-04-08T07:14:42;22.47;;;20.40;;
57551;SDS011;43379;48.160;14.036;2023-04-08T07:17:08;20.73;;;18.80;;
57551;SDS011;43379;48.160;14.036;2023-04-08T07:19:33;22.47;;;20.30;;
57551;SDS011;43379;48.160;14.036;2023-04-08T07:22:00;20.40;;;18.60;;
57551;SDS011;43379;48.160;14.036;2023-04-08T07:24:26;20.10;;;18.20;;
57551;SDS011;43379;48.160;14.036;2023-04-08T07:26:51;20.90;;;18.80;;
57551;SDS011;43379;48.160;14.036;2023-04-08T07:29:19;20.57;;;18.60;;
57551;SDS011;43379;48.160;14.036;2023-04-08T07:31:45;19.30;;;17.40;;
57551;SDS011;43379;48.160;14.036;2023-04-08T07:34:10;18.70;;;17.00;;
57551;SDS011;43379;48.160;14.036;2023-04-08T07:36:36;19.40;;;17.50;;
57551;SDS011;43379;48.160;14.036;2023-04-08T07:39:02;20.00;;;18.13;;
57551;SDS011;43379;48.160;14.036;2023-04-08T07:41:28;21.00;;;18.90;;
57551;SDS011;43379;48.160;14.036;2023-04-08T07:43:53;21.23;;;18.97;;
57551;SDS011;43379;48.160;14.036;2023-04-08T07:46:20;20.20;;;18.20;;
57551;SDS011;43379;48.160;14.036;2023-04-08T07:48:45;19.43;;;17.63;;
57551;SDS011;43379;48.160;14.036;2023-04-08T07:51:11;20.13;;;18.10;;
57551;SDS011;43379;48.160;14.036;2023-04-08T07:53:38;19.90;;;18.00;;
57551;SDS011;43379;48.160;14.036;2023-04-08T07:56:09;21.23;;;18.47;;
57551;SDS011;43379;48.160;14.036;2023-04-08T07:58:36;19.57;;;17.67;;
57551;SDS011;43379;48.160;14.036;2023-04-08T08:01:02;20.27;;;18.10;;
57551;SDS011;43379;48.160;14.036;2023-04-08T08:03:27;19.80;;;17.63;;
57551;SDS011;43379;48.160;14.036;2023-04-08T08:05:53;19.73;;;17.80;;
57551;SDS011;43379;48.160;14.036;2023-04-08T08:08:19;19.40;;;17.67;;
57551;SDS011;43379;48.160;14.036;2023-04-08T08:10:44;18.93;;;17.23;;
57551;SDS011;43379;48.160;14.036;2023-04-08T08:13:10;19.10;;;17.37;;
57551;SDS011;43379;48.160;14.036;2023-04-08T08:15:40;18.80;;;17.10;;
57551;SDS011;43379;48.160;14.036;2023-04-08T08:18:06;17.00;;;15.50;;
57551;SDS011;43379;48.160;14.036;2023-04-08T08:20:32;20.20;;;18.40;;
57551;SDS011;43379;48.160;14.036;2023-04-08T08:22:59;18.43;;;16.83;;
57551;SDS011;43379;48.160;14.036;2023-04-08T08:25:25;19.90;;;18.10;;
57551;SDS011;43379;48.160;14.036;2023-04-08T08:27:50;21.77;;;19.57;;
57551;SDS011;43379;48.160;14.036;2023-04-08T08:30:16;21.17;;;19.17;;
57551;SDS011;43379;48.160;14.036;2023-04-08T08:32:43;20.70;;;18.60;;
57551;SDS011;43379;48.160;14.036;2023-04-08T08:35:09;19.40;;;17.60;;
57551;SDS011;43379;48.160;14.036;2023-04-08T08:37:35;20.57;;;18.47;;
57551;SDS011;43379;48.160;14.036;2023-04-08T08:40:00;18.87;;;17.23;;
57551;SDS011;43379;48.160;14.036;2023-04-08T08:42:26;19.80;;;17.90;;
57551;SDS011;43379;48.160;14.036;2023-04-08T08:44:52;19.23;;;17.27;;
57551;SDS011;43379;48.160;14.036;2023-04-08T08:47:18;20.10;;;18.30;;
57551;SDS011;43379;48.160;14.036;2023-04-08T08:49:44;18.53;;;16.93;;
57551;SDS011;43379;48.160;14.036;2023-04-08T08:52:14;19.97;;;17.90;;
57551;SDS011;43379;48.160;14.036;2023-04-08T08:54:42;18.97;;;17.27;;
57551;SDS011;43379;48.160;14.036;2023-04-08T08:57:15;17.57;;;16.00;;
57551;SDS011;43379;48.160;14.036;2023-04-08T08:59:43;17.87;;;16.27;;
57551;SDS011;43379;48.160;14.036;2023-04-08T09:02:27;17.97;;;16.37;;
57551;SDS011;43379;48.160;14.036;2023-04-08T09:05:00;17.77;;;16.33;;
57551;SDS011;43379;48.160;14.036;2023-04-08T09:07:28;17.93;;;16.33;;
57551;SDS011;43379;48.160;14.036;2023-04-08T09:09:55;18.10;;;16.50;;
57551;SDS011;43379;48.160;14.036;2023-04-08T09:12:22;17.27;;;15.77;;
57551;SDS011;43379;48.160;14.036;2023-04-08T09:14:49;19.50;;;17.50;;
57551;SDS011;43379;48.160;14.036;2023-04-08T09:17:15;19.57;;;17.97;;
57551;SDS011;43379;48.160;14.036;2023-04-08T09:20:06;19.70;;;18.00;;
57551;SDS011;43379;48.160;14.036;2023-04-08T09:25:24;16.37;;;14.87;;
57551;SDS011;43379;48.160;14.036;2023-04-08T09:27:54;18.00;;;16.40;;
57551;SDS011;43379;48.160;14.036;2023-04-08T09:30:23;17.50;;;15.90;;
57551;SDS011;43379;48.160;14.036;2023-04-08T09:32:51;18.70;;;16.87;;
57551;SDS011;43379;48.160;14.036;2023-04-08T09:35:22;18.80;;;17.10;;
57551;SDS011;43379;48.160;14.036;2023-04-08T09:37:48;16.20;;;14.70;;
57551;SDS011;43379;48.160;14.036;2023-04-08T09:40:15;18.87;;;17.13;;
57551;SDS011;43379;48.160;14.036;2023-04-08T09:42:45;17.40;;;15.87;;
57551;SDS011;43379;48.160;14.036;2023-04-08T09:45:14;17.30;;;15.80;;
57551;SDS011;43379;48.160;14.036;2023-04-08T09:47:43;17.00;;;15.50;;
57551;SDS011;43379;48.160;14.036;2023-04-08T09:50:21;16.33;;;14.93;;
57551;SDS011;43379;48.160;14.036;2023-04-08T09:53:08;17.80;;;16.30;;
57551;SDS011;43379;48.160;14.036;2023-04-08T09:55:38;18.00;;;16.37;;
57551;SDS011;43379;48.160;14.036;2023-04-08T09:58:14;18.67;;;17.07;;
57551;SDS011;43379;48.160;14.036;2023-04-08T10:00:48;16.40;;;14.90;;
57551;SDS011;43379;48.160;14.036;2023-04-08T10:05:47;17.13;;;15.70;;
57551;SDS011;43379;48.160;14.036;2023-04-08T10:08:14;17.20;;;15.70;;
57551;SDS011;43379;48.160;14.036;2023-04-08T10:10:40;18.13;;;16.33;;
57551;SDS011;43379;48.160;14.036;2023-04-08T10:13:07;16.50;;;15.10;;
57551;SDS011;43379;48.160;14.036;2023-04-08T10:15:34;17.40;;;15.93;;
57551;SDS011;43379;48.160;14.036;2023-04-08T10:23:02;17.60;;;16.17;;
57551;SDS011;43379;48.160;14.036;2023-04-08T10:30:39;18.07;;;16.47;;
57551;SDS011;43379;48.160;14.036;2023-04-08T10:33:12;19.43;;;17.83;;
57551;SDS011;43379;48.160;14.036;2023-04-08T10:38:31;21.53;;;19.63;;
57551;SDS011;43379;48.160;14.036;2023-04-08T10:40:57;19.80;;;17.90;;
57551;SDS011;43379;48.160;14.036;2023-04-08T10:43:22;21.10;;;19.30;;
57551;SDS011;43379;48.160;14.036;2023-04-08T10:45:48;20.43;;;18.73;;
57551;SDS011;43379;48.160;14.036;2023-04-08T10:50:56;23.23;;;21.17;;
57551;SDS011;43379;48.160;14.036;2023-04-08T10:53:30;23.15;;;21.25;;
57551;SDS011;43379;48.160;14.036;2023-04-08T10:58:52;21.17;;;19.13;;
57551;SDS011;43379;48.160;14.036;2023-04-08T11:01:20;21.53;;;19.57;;
57551;SDS011;43379;48.160;14.036;2023-04-08T11:03:47;21.70;;;19.80;;
57551;SDS011;43379;48.160;14.036;2023-04-08T11:06:13;21.13;;;19.13;;
57551;SDS011;43379;48.160;14.036;2023-04-08T11:08:39;21.23;;;19.53;;
57551;SDS011;43379;48.160;14.036;2023-04-08T11:11:05;20.37;;;18.50;;
57551;SDS011;43379;48.160;14.036;2023-04-08T11:13:35;20.53;;;18.77;;
57551;SDS011;43379;48.160;14.036;2023-04-08T11:16:06;21.17;;;19.33;;
57551;SDS011;43379;48.160;14.036;2023-04-08T11:18:36;24.75;;;22.67;;
57551;SDS011;43379;48.160;14.036;2023-04-08T11:21:07;24.80;;;22.60;;
57551;SDS011;43379;48.160;14.036;2023-04-08T11:23:34;20.83;;;19.03;;
57551;SDS011;43379;48.160;14.036;2023-04-08T11:26:00;24.40;;;22.20;;
57551;SDS011;43379;48.160;14.036;2023-04-08T11:28:26;22.20;;;20.20;;
57551;SDS011;43379;48.160;14.036;2023-04-08T11:30:53;21.80;;;19.90;;
57551;SDS011;43379;48.160;14.036;2023-04-08T11:33:19;23.60;;;21.60;;
57551;SDS011;43379;48.160;14.036;2023-04-08T11:35:49;23.23;;;21.13;;
57551;SDS011;43379;48.160;14.036;2023-04-08T11:38:15;23.03;;;20.93;;
57551;SDS011;43379;48.160;14.036;2023-04-08T11:40:52;21.90;;;19.93;;
57551;SDS011;43379;48.160;14.036;2023-04-08T11:43:18;22.60;;;20.57;;
57551;SDS011;43379;48.160;14.036;2023-04-08T11:45:44;22.27;;;20.23;;
57551;SDS011;43379;48.160;14.036;2023-04-08T11:48:10;23.30;;;21.30;;
57551;SDS011;43379;48.160;14.036;2023-04-08T11:50:38;23.33;;;21.33;;
57551;SDS011;43379;48.160;14.036;2023-04-08T11:53:14;23.37;;;21.07;;
57551;SDS011;43379;48.160;14.036;2023-04-08T11:55:49;22.73;;;20.83;;
57551;SDS011;43379;48.160;14.036;2023-04-08T11:58:15;23.10;;;20.93;;
57551;SDS011;43379;48.160;14.036;2023-04-08T12:00:41;23.47;;;21.37;;
57551;SDS011;43379;48.160;14.036;2023-04-08T12:03:08;22.77;;;20.57;;
57551;SDS011;43379;48.160;14.036;2023-04-08T12:05:34;24.50;;;22.00;;
57551;SDS011;43379;48.160;14.036;2023-04-08T12:08:00;22.20;;;20.30;;
57551;SDS011;43379;48.160;14.036;2023-04-08T12:10:27;23.57;;;21.43;;
57551;SDS011;43379;48.160;14.036;2023-04-08T12:12:52;23.70;;;21.57;;
57551;SDS011;43379;48.160;14.036;2023-04-08T12:15:18;21.40;;;19.50;;
57551;SDS011;43379;48.160;14.036;2023-04-08T12:17:44;20.83;;;19.00;;
57551;SDS011;43379;48.160;14.036;2023-04-08T12:20:10;23.10;;;20.97;;
57551;SDS011;43379;48.160;14.036;2023-04-08T12:22:37;22.40;;;20.10;;
57551;SDS011;43379;48.160;14.036;2023-04-08T12:25:03;18.93;;;17.23;;
57551;SDS011;43379;48.160;14.036;2023-04-08T12:27:30;21.73;;;19.63;;
57551;SDS011;43379;48.160;14.036;2023-04-08T12:29:59;22.80;;;20.70;;
57551;SDS011;43379;48.160;14.036;2023-04-08T12:32:26;21.93;;;19.93;;
57551;SDS011;43379;48.160;14.036;2023-04-08T12:34:52;22.10;;;19.97;;
57551;SDS011;43379;48.160;14.036;2023-04-08T12:37:18;21.20;;;19.30;;
57551;SDS011;43379;48.160;14.036;2023-04-08T12:39:47;21.90;;;19.90;;
57551;SDS011;43379;48.160;14.036;2023-04-08T12:42:14;21.67;;;19.67;;
57551;SDS011;43379;48.160;14.036;2023-04-08T12:44:39;21.80;;;19.73;;
57551;SDS011;43379;48.160;14.036;2023-04-08T12:47:05;22.37;;;20.47;;
57551;SDS011;43379;48.160;14.036;2023-04-08T12:49:31;21.07;;;19.27;;
57551;SDS011;43379;48.160;14.036;2023-04-08T12:51:57;19.97;;;18.00;;
57551;SDS011;43379;48.160;14.036;2023-04-08T12:54:23;20.27;;;18.47;;
57551;SDS011;43379;48.160;14.036;2023-04-08T12:56:48;17.97;;;16.47;;
57551;SDS011;43379;48.160;14.036;2023-04-08T12:59:14;18.87;;;17.17;;
57551;SDS011;43379;48.160;14.036;2023-04-08T13:01:40;18.60;;;17.10;;
57551;SDS011;43379;48.160;14.036;2023-04-08T13:04:06;16.63;;;15.03;;
57551;SDS011;43379;48.160;14.036;2023-04-08T13:06:31;17.73;;;16.17;;
57551;SDS011;43379;48.160;14.036;2023-04-08T13:08:57;17.67;;;15.97;;
57551;SDS011;43379;48.160;14.036;2023-04-08T13:11:23;18.70;;;17.03;;
57551;SDS011;43379;48.160;14.036;2023-04-08T13:13:49;18.50;;;16.90;;
57551;SDS011;43379;48.160;14.036;2023-04-08T13:16:14;18.40;;;16.83;;
57551;SDS011;43379;48.160;14.036;2023-04-08T13:18:40;16.30;;;14.90;;
57551;SDS011;43379;48.160;14.036;2023-04-08T13:21:07;15.87;;;14.57;;
57551;SDS011;43379;48.160;14.036;2023-04-08T13:23:33;13.83;;;12.63;;
57551;SDS011;43379;48.160;14.036;2023-04-08T13:25:58;11.70;;;10.80;;
57551;SDS011;43379;48.160;14.036;2023-04-08T13:28:24;11.53;;;10.63;;
57551;SDS011;43379;48.160;14.036;2023-04-08T13:30:50;10.97;;;10.17;;
57551;SDS011;43379;48.160;14.036;2023-04-08T13:33:16;12.43;;;11.43;;
57551;SDS011;43379;48.160;14.036;2023-04-08T13:35:41;11.40;;;10.40;;
57551;SDS011;43379;48.160;14.036;2023-04-08T13:38:07;10.00;;;9.20;;
57551;SDS011;43379;48.160;14.036;2023-04-08T13:40:33;10.77;;;9.87;;
57551;SDS011;43379;48.160;14.036;2023-04-08T13:42:59;11.33;;;10.33;;
57551;SDS011;43379;48.160;14.036;2023-04-08T13:45:24;10.93;;;9.83;;
57551;SDS011;43379;48.160;14.036;2023-04-08T13:47:50;10.40;;;9.60;;
57551;SDS011;43379;48.160;14.036;2023-04-08T13:50:16;11.27;;;10.37;;
57551;SDS011;43379;48.160;14.036;2023-04-08T13:52:41;10.00;;;9.30;;
57551;SDS011;43379;48.160;14.036;2023-04-08T13:55:07;10.10;;;9.37;;
57551;SDS011;43379;48.160;14.036;2023-04-08T13:57:33;10.40;;;9.50;;
57551;SDS011;43379;48.160;14.036;2023-04-08T13:59:59;9.27;;;8.53;;
57551;SDS011;43379;48.160;14.036;2023-04-08T14:02:25;9.30;;;8.63;;
57551;SDS011;43379;48.160;14.036;2023-04-08T14:04:51;9.60;;;8.90;;
57551;SDS011;43379;48.160;14.036;2023-04-08T14:07:17;7.80;;;7.07;;
57551;SDS011;43379;48.160;14.036;2023-04-08T14:09:43;6.60;;;6.10;;
57551;SDS011;43379;48.160;14.036;2023-04-08T14:12:09;6.20;;;5.70;;
57551;SDS011;43379;48.160;14.036;2023-04-08T14:14:35;6.73;;;6.23;;
57551;SDS011;43379;48.160;14.036;2023-04-08T14:17:00;6.80;;;6.30;;
57551;SDS011;43379;48.160;14.036;2023-04-08T14:19:26;7.23;;;6.70;;
57551;SDS011;43379;48.160;14.036;2023-04-08T14:21:52;6.43;;;5.87;;
57551;SDS011;43379;48.160;14.036;2023-04-08T14:24:17;6.40;;;6.00;;
57551;SDS011;43379;48.160;14.036;2023-04-08T14:26:43;7.00;;;6.50;;
57551;SDS011;43379;48.160;14.036;2023-04-08T14:29:09;7.50;;;6.90;;
57551;SDS011;43379;48.160;14.036;2023-04-08T14:31:35;7.20;;;6.60;;
57551;SDS011;43379;48.160;14.036;2023-04-08T14:34:01;7.80;;;7.20;;
57551;SDS011;43379;48.160;14.036;2023-04-08T14:36:27;8.17;;;7.47;;
57551;SDS011;43379;48.160;14.036;2023-04-08T14:38:53;7.43;;;6.93;;
57551;SDS011;43379;48.160;14.036;2023-04-08T14:41:19;7.00;;;6.50;;
57551;SDS011;43379;48.160;14.036;2023-04-08T14:43:46;8.27;;;7.67;;